createdAt,value
2023-05-06T00:00:09.360Z,53.81
2023-05-06T00:03:03.379Z,53.72
2023-05-06T00:05:31.408Z,53.79
2023-05-06T00:07:59.482Z,53.72
2023-05-06T00:10:27.439Z,53.74
2023-05-06T00:12:55.708Z,53.70
2023-05-06T00:15:23.713Z,53.67
2023-05-06T00:17:52.307Z,53.70
2023-05-06T00:20:20.779Z,53.64
2023-05-06T00:22:48.658Z,53.65
2023-05-06T00:25:16.586Z,53.60
2023-05-06T00:27:44.618Z,53.62
2023-05-06T00:30:12.665Z,53.61
2023-05-06T00:32:40.897Z,53.65
2023-05-06T00:35:09.579Z,53.63
2023-05-06T00:37:38.437Z,53.65
2023-05-06T00:40:06.944Z,53.76
2023-05-06T00:42:34.914Z,53.89
2023-05-06T00:45:02.879Z,53.91
2023-05-06T00:47:31.024Z,54.04
2023-05-06T00:49:59.353Z,54.03
2023-05-06T00:52:27.317Z,54.05
2023-05-06T00:54:55.727Z,54.09
2023-05-06T00:57:23.773Z,54.14
2023-05-06T00:59:51.852Z,54.10
2023-05-06T01:02:20.133Z,54.19
2023-05-06T01:04:48.124Z,54.13
2023-05-06T01:07:35.014Z,54.18
2023-05-06T01:10:29.336Z,54.10
2023-05-06T01:12:57.384Z,54.16
2023-05-06T01:15:41.094Z,54.20
2023-05-06T01:18:10.906Z,54.19
2023-05-06T01:20:40.429Z,54.24
2023-05-06T01:23:12.064Z,54.20
2023-05-06T01:25:40.165Z,54.24
2023-05-06T01:28:10.588Z,54.20
2023-05-06T01:30:41.216Z,54.21
2023-05-06T01:33:18.405Z,54.24
2023-05-06T01:35:46.590Z,54.42
2023-05-06T01:38:14.470Z,54.27
2023-05-06T01:40:44.378Z,54.32
2023-05-06T01:43:13.364Z,54.38
2023-05-06T01:45:43.911Z,54.35
2023-05-06T01:48:12.292Z,54.36
2023-05-06T01:50:41.085Z,54.37
2023-05-06T01:53:09.164Z,54.33
2023-05-06T01:55:37.041Z,54.33
2023-05-06T01:58:05.121Z,54.29
2023-05-06T02:00:34.123Z,54.28
2023-05-06T02:03:01.977Z,54.19
2023-05-06T02:05:30.144Z,54.35
2023-05-06T02:07:58.788Z,54.18
2023-05-06T02:10:26.581Z,54.28
2023-05-06T02:12:59.758Z,54.25
2023-05-06T02:15:27.995Z,54.25
2023-05-06T02:17:57.261Z,54.22
2023-05-06T02:20:26.915Z,54.20
2023-05-06T02:22:54.884Z,54.16
2023-05-06T02:25:24.088Z,54.10
2023-05-06T02:27:52.058Z,54.08
2023-05-06T02:30:20.102Z,54.15
2023-05-06T02:32:48.335Z,54.10
2023-05-06T02:35:16.406Z,54.14
2023-05-06T02:37:44.262Z,54.04
2023-05-06T02:40:12.352Z,54.04
2023-05-06T02:42:40.253Z,54.07
2023-05-06T02:45:08.740Z,54.10
2023-05-06T02:47:36.891Z,54.08
2023-05-06T02:50:05.240Z,54.11
2023-05-06T02:52:36.305Z,54.20
2023-05-06T02:55:04.536Z,54.15
2023-05-06T02:57:32.427Z,54.24
2023-05-06T03:00:00.424Z,54.28
2023-05-06T03:02:28.464Z,54.28
2023-05-06T03:04:56.456Z,54.37
2023-05-06T03:07:24.254Z,54.35
2023-05-06T03:09:52.242Z,54.37
2023-05-06T03:12:20.076Z,54.30
2023-05-06T03:14:47.958Z,54.33
2023-05-06T03:17:15.829Z,54.42
2023-05-06T03:19:44.311Z,54.43
2023-05-06T03:22:12.706Z,54.31
2023-05-06T03:24:42.953Z,54.41
2023-05-06T03:27:11.600Z,54.54
2023-05-06T03:29:40.210Z,54.54
2023-05-06T03:32:09.078Z,54.51
2023-05-06T03:34:41.825Z,54.53
2023-05-06T03:37:11.071Z,54.59
2023-05-06T03:39:40.595Z,54.70
2023-05-06T03:42:09.735Z,54.69
2023-05-06T03:44:38.599Z,54.68
2023-05-06T03:47:07.381Z,54.75
2023-05-06T03:49:36.381Z,54.82
2023-05-06T03:52:05.591Z,54.83
2023-05-06T03:54:33.879Z,54.93
2023-05-06T03:57:03.019Z,54.97
2023-05-06T03:59:31.639Z,54.89
2023-05-06T04:02:00.496Z,55.02
2023-05-06T04:04:28.426Z,55.02
2023-05-06T04:06:57.318Z,55.26
2023-05-06T04:09:25.405Z,55.18
2023-05-06T04:11:54.061Z,55.19
2023-05-06T04:14:22.305Z,55.32
2023-05-06T04:16:50.637Z,55.29
2023-05-06T04:19:18.728Z,55.42
2023-05-06T04:21:47.329Z,55.37
2023-05-06T04:24:16.307Z,55.36
2023-05-06T04:26:44.385Z,55.38
2023-05-06T04:29:12.568Z,55.50
2023-05-06T04:31:46.461Z,55.48
2023-05-06T04:34:15.252Z,55.51
2023-05-06T04:36:43.665Z,55.59
2023-05-06T04:39:34.465Z,55.67
2023-05-06T04:42:02.369Z,55.70
2023-05-06T04:44:36.657Z,55.72
2023-05-06T04:47:05.625Z,55.68
2023-05-06T04:49:33.934Z,55.77
2023-05-06T04:52:02.743Z,55.79
2023-05-06T04:54:30.843Z,55.81
2023-05-06T04:56:58.764Z,55.88
2023-05-06T04:59:27.299Z,55.90
2023-05-06T05:01:55.527Z,55.97
2023-05-06T05:04:24.233Z,56.09
2023-05-06T05:06:52.788Z,56.18
2023-05-06T05:09:20.702Z,56.24
2023-05-06T05:11:49.273Z,56.33
2023-05-06T05:14:17.242Z,56.41
2023-05-06T05:16:45.241Z,56.61
2023-05-06T05:19:13.295Z,56.60
2023-05-06T05:21:41.481Z,56.57
2023-05-06T05:24:09.962Z,56.62
2023-05-06T05:26:37.749Z,56.64
2023-05-06T05:29:06.697Z,56.74
2023-05-06T05:31:34.636Z,56.74
2023-05-06T05:34:02.870Z,56.84
2023-05-06T05:36:30.609Z,56.83
2023-05-06T05:38:59.637Z,56.78
2023-05-06T05:41:28.714Z,56.74
2023-05-06T05:43:56.924Z,56.76
2023-05-06T05:46:25.451Z,56.76
2023-05-06T05:48:53.901Z,56.70
2023-05-06T05:51:22.896Z,56.66
2023-05-06T05:53:52.304Z,56.66
2023-05-06T05:56:20.999Z,56.62
2023-05-06T05:58:49.868Z,56.58
2023-05-06T06:01:17.965Z,56.59
2023-05-06T06:03:47.181Z,56.57
2023-05-06T06:06:15.342Z,56.56
2023-05-06T06:08:43.694Z,56.54
2023-05-06T06:11:12.410Z,56.52
2023-05-06T06:13:41.513Z,56.44
2023-05-06T06:16:09.520Z,56.43
2023-05-06T06:18:37.332Z,56.37
2023-05-06T06:21:06.537Z,56.25
2023-05-06T06:23:34.455Z,56.29
2023-05-06T06:26:03.220Z,56.27
2023-05-06T06:28:31.621Z,56.24
2023-05-06T06:31:00.401Z,56.28
2023-05-06T06:33:28.276Z,56.19
2023-05-06T06:35:57.176Z,56.12
2023-05-06T06:38:25.990Z,56.09
2023-05-06T06:40:54.247Z,56.09
2023-05-06T06:43:23.969Z,56.05
2023-05-06T06:45:57.672Z,56.05
2023-05-06T06:48:25.599Z,56.04
2023-05-06T06:50:53.512Z,55.91
2023-05-06T06:53:21.462Z,55.94
2023-05-06T06:55:49.250Z,55.86
2023-05-06T06:58:17.059Z,55.84
2023-05-06T07:00:45.630Z,55.79
2023-05-06T07:03:19.347Z,55.71
2023-05-06T07:05:47.538Z,55.68
2023-05-06T07:08:17.374Z,55.68
2023-05-06T07:10:45.225Z,55.60
2023-05-06T07:13:13.226Z,55.65
2023-05-06T07:15:41.245Z,55.50
2023-05-06T07:18:09.923Z,55.54
2023-05-06T07:20:37.781Z,55.56
2023-05-06T07:23:06.290Z,55.47
2023-05-06T07:25:35.500Z,55.53
2023-05-06T07:28:03.524Z,55.40
2023-05-06T07:30:31.400Z,55.42
2023-05-06T07:32:59.577Z,55.34
2023-05-06T07:35:27.487Z,55.37
2023-05-06T07:37:55.442Z,55.25
2023-05-06T07:40:23.331Z,55.18
2023-05-06T07:42:51.405Z,55.19
2023-05-06T07:45:19.791Z,55.22
2023-05-06T07:47:47.734Z,55.19
2023-05-06T07:50:15.733Z,55.15
2023-05-06T07:52:43.716Z,55.13
2023-05-06T07:55:12.267Z,55.01
2023-05-06T07:57:40.490Z,54.95
2023-05-06T08:00:10.221Z,54.96
2023-05-06T08:02:44.939Z,55.06
2023-05-06T08:05:13.714Z,54.97
2023-05-06T08:07:42.337Z,54.98
2023-05-06T08:10:11.079Z,54.92
2023-05-06T08:12:39.070Z,54.88
2023-05-06T08:15:08.043Z,54.86
2023-05-06T08:17:36.103Z,54.85
2023-05-06T08:20:04.916Z,54.88
2023-05-06T08:22:32.794Z,54.79
2023-05-06T08:25:01.199Z,54.81
2023-05-06T08:27:29.008Z,54.76
2023-05-06T08:29:57.440Z,54.76
2023-05-06T08:32:25.311Z,54.77
2023-05-06T08:34:53.280Z,54.73
2023-05-06T08:37:21.281Z,54.61
2023-05-06T08:39:49.348Z,54.66
2023-05-06T08:42:17.455Z,54.64
2023-05-06T08:44:46.120Z,54.58
2023-05-06T08:47:14.089Z,54.63
2023-05-06T08:49:41.965Z,55.02
2023-05-06T08:52:09.935Z,55.55
2023-05-06T08:54:38.313Z,55.66
2023-05-06T08:57:12.450Z,55.51
2023-05-06T08:59:41.612Z,55.40
2023-05-06T09:02:11.276Z,55.35
2023-05-06T09:04:39.959Z,55.15
2023-05-06T09:07:08.138Z,55.26
2023-05-06T09:09:35.996Z,55.09
2023-05-06T09:12:04.280Z,55.17
2023-05-06T09:14:32.145Z,55.28
2023-05-06T09:17:00.262Z,55.29
2023-05-06T09:19:28.145Z,55.05
2023-05-06T09:21:56.889Z,54.94
2023-05-06T09:24:25.504Z,54.97
2023-05-06T09:26:55.547Z,54.78
2023-05-06T09:29:23.461Z,54.79
2023-05-06T09:31:53.909Z,54.76
2023-05-06T09:34:22.744Z,54.63
2023-05-06T09:36:52.518Z,54.67
2023-05-06T09:39:25.296Z,54.73
2023-05-06T09:41:53.891Z,54.66
2023-05-06T09:44:23.290Z,54.58
2023-05-06T09:46:51.216Z,54.53
2023-05-06T09:49:19.142Z,54.52
2023-05-06T09:51:51.420Z,54.37
2023-05-06T09:54:19.702Z,54.43
2023-05-06T09:56:47.999Z,54.47
2023-05-06T09:59:18.522Z,54.37
2023-05-06T10:01:47.237Z,54.32
2023-05-06T10:04:16.226Z,54.35
2023-05-06T10:06:44.308Z,54.14
2023-05-06T10:09:12.560Z,54.07
2023-05-06T10:11:40.604Z,54.02
2023-05-06T10:14:09.309Z,54.03
2023-05-06T10:16:37.772Z,54.06
2023-05-06T10:19:07.549Z,53.87
2023-05-06T10:21:36.397Z,53.82
2023-05-06T10:24:11.479Z,53.85
2023-05-06T10:26:41.007Z,53.85
2023-05-06T10:29:09.645Z,53.86
2023-05-06T10:31:39.977Z,53.83
2023-05-06T10:34:08.055Z,53.86
2023-05-06T10:36:37.563Z,53.66
2023-05-06T10:39:07.478Z,53.58
2023-05-06T10:41:37.202Z,53.51
2023-05-06T10:44:06.150Z,53.52
2023-05-06T10:46:54.123Z,53.48
2023-05-06T10:49:21.986Z,53.43
2023-05-06T10:52:12.289Z,53.35
2023-05-06T10:54:51.134Z,53.18
2023-05-06T10:57:21.922Z,53.26
2023-05-06T10:59:49.834Z,53.04
2023-05-06T11:02:20.178Z,53.17
2023-05-06T11:04:53.293Z,53.01
2023-05-06T11:07:22.635Z,52.88
2023-05-06T11:09:54.815Z,52.83
2023-05-06T11:12:23.096Z,52.87
2023-05-06T11:14:51.161Z,52.79
2023-05-06T11:17:32.171Z,52.74
2023-05-06T11:20:19.092Z,52.67
2023-05-06T11:22:47.012Z,52.66
2023-05-06T11:25:15.188Z,52.53
2023-05-06T11:27:43.071Z,52.51
2023-05-06T11:30:14.506Z,52.47
2023-05-06T11:32:42.969Z,52.37
2023-05-06T11:35:11.902Z,52.38
2023-05-06T11:37:42.495Z,52.40
2023-05-06T11:40:14.136Z,52.35
2023-05-06T11:42:42.260Z,52.21
2023-05-06T11:45:11.742Z,52.23
2023-05-06T11:47:43.536Z,52.24
2023-05-06T11:50:11.821Z,52.07
2023-05-06T11:52:40.423Z,51.86
2023-05-06T11:55:10.093Z,51.88
2023-05-06T11:57:41.766Z,51.78
2023-05-06T12:00:10.194Z,51.69
2023-05-06T12:02:41.036Z,51.60
2023-05-06T12:05:09.529Z,51.48
2023-05-06T12:07:37.579Z,51.50
2023-05-06T12:10:05.850Z,51.43
2023-05-06T12:12:34.084Z,51.29
2023-05-06T12:15:03.957Z,51.40
2023-05-06T12:17:32.346Z,51.25
2023-05-06T12:20:00.405Z,51.29
2023-05-06T12:22:28.383Z,51.26
2023-05-06T12:24:56.444Z,51.24
2023-05-06T12:27:31.058Z,51.08
2023-05-06T12:29:58.971Z,51.08
2023-05-06T12:32:27.348Z,51.05
2023-05-06T12:34:56.018Z,51.09
2023-05-06T12:37:24.662Z,51.07
2023-05-06T12:39:52.742Z,50.98
2023-05-06T12:42:21.506Z,50.91
2023-05-06T12:44:50.706Z,50.83
2023-05-06T12:47:19.688Z,50.78
2023-05-06T12:49:48.656Z,50.77
2023-05-06T12:52:18.096Z,50.74
2023-05-06T12:54:46.383Z,50.70
2023-05-06T12:57:14.251Z,50.60
2023-05-06T12:59:43.264Z,50.59
2023-05-06T13:02:11.526Z,50.55
2023-05-06T13:04:39.603Z,50.54
2023-05-06T13:07:07.440Z,50.49
2023-05-06T13:09:35.246Z,50.49
2023-05-06T13:12:04.777Z,50.40
2023-05-06T13:14:32.601Z,50.42
2023-05-06T13:17:01.386Z,50.36
2023-05-06T13:19:32.939Z,50.31
2023-05-06T13:22:01.475Z,50.30
2023-05-06T13:24:29.967Z,50.23
2023-05-06T13:27:00.865Z,50.17
2023-05-06T13:29:29.819Z,50.16
2023-05-06T13:31:57.985Z,50.11
2023-05-06T13:34:26.166Z,50.04
2023-05-06T13:36:57.196Z,49.96
2023-05-06T13:39:25.783Z,49.96
2023-05-06T13:41:54.313Z,49.98
2023-05-06T13:44:22.378Z,50.02
2023-05-06T13:46:50.563Z,49.95
2023-05-06T13:49:18.713Z,49.95
2023-05-06T13:51:46.576Z,49.89
2023-05-06T13:54:14.551Z,49.86
2023-05-06T13:56:42.381Z,49.84
2023-05-06T13:59:11.948Z,49.84
2023-05-06T14:01:40.548Z,49.92
2023-05-06T14:04:08.511Z,49.85
2023-05-06T14:06:36.467Z,49.89
2023-05-06T14:09:04.795Z,49.85
2023-05-06T14:11:32.853Z,49.78
2023-05-06T14:14:00.907Z,49.90
2023-05-06T14:16:28.805Z,49.78
2023-05-06T14:18:56.868Z,49.81
2023-05-06T14:21:25.135Z,49.56
2023-05-06T14:23:53.014Z,49.36
2023-05-06T14:26:21.599Z,49.41
2023-05-06T14:28:49.465Z,49.22
2023-05-06T14:31:17.356Z,49.17
2023-05-06T14:33:45.519Z,49.11
2023-05-06T14:36:17.996Z,49.06
2023-05-06T14:38:45.868Z,49.11
2023-05-06T14:41:13.846Z,49.06
2023-05-06T14:43:41.724Z,49.06
2023-05-06T14:46:11.287Z,48.84
2023-05-06T14:48:39.262Z,48.82
2023-05-06T14:51:07.172Z,48.87
2023-05-06T14:53:35.143Z,48.91
2023-05-06T14:56:03.138Z,48.83
2023-05-06T14:58:31.051Z,48.90
2023-05-06T15:00:59.001Z,48.94
2023-05-06T15:03:26.832Z,48.87
2023-05-06T15:05:54.938Z,48.77
2023-05-06T15:08:22.978Z,48.86
2023-05-06T15:10:50.982Z,48.90
2023-05-06T15:13:18.960Z,48.92
2023-05-06T15:15:46.912Z,48.88
2023-05-06T15:18:15.201Z,48.91
2023-05-06T15:20:43.087Z,48.94
2023-05-06T15:23:10.940Z,48.96
2023-05-06T15:25:39.021Z,49.02
2023-05-06T15:28:07.208Z,49.17
2023-05-06T15:30:36.801Z,49.05
2023-05-06T15:33:05.215Z,49.13
2023-05-06T15:35:33.270Z,49.20
2023-05-06T15:38:02.586Z,49.12
2023-05-06T15:40:31.275Z,49.23
2023-05-06T15:42:59.523Z,49.19
2023-05-06T15:45:27.465Z,49.30
2023-05-06T15:47:56.380Z,49.32
2023-05-06T15:50:32.766Z,49.35
2023-05-06T15:53:02.769Z,49.45
2023-05-06T15:55:35.319Z,49.39
2023-05-06T15:58:11.780Z,49.46
2023-05-06T16:00:39.721Z,49.47
2023-05-06T16:03:09.726Z,49.55
2023-05-06T16:05:39.920Z,49.57
2023-05-06T16:08:07.909Z,49.69
2023-05-06T16:10:35.852Z,49.61
2023-05-06T16:13:03.732Z,49.66
2023-05-06T16:15:31.709Z,49.69
2023-05-06T16:17:59.578Z,49.70
2023-05-06T16:20:27.465Z,49.70
2023-05-06T16:22:55.477Z,49.69
2023-05-06T16:25:23.459Z,49.67
2023-05-06T16:27:51.263Z,49.75
2023-05-06T16:30:19.412Z,49.65
2023-05-06T16:32:47.392Z,49.65
2023-05-06T16:35:18.526Z,49.84
2023-05-06T16:37:46.409Z,49.78
2023-05-06T16:40:15.185Z,49.87
2023-05-06T16:42:43.074Z,49.89
2023-05-06T16:45:11.662Z,50.03
2023-05-06T16:47:39.529Z,49.95
2023-05-06T16:50:07.877Z,49.98
2023-05-06T16:52:36.402Z,50.11
2023-05-06T16:55:04.481Z,50.08
2023-05-06T16:57:32.339Z,50.08
2023-05-06T17:00:02.112Z,50.24
2023-05-06T17:02:30.149Z,50.28
2023-05-06T17:04:58.129Z,50.57
2023-05-06T17:07:26.299Z,50.64
2023-05-06T17:09:54.057Z,50.64
2023-05-06T17:12:23.863Z,50.68
2023-05-06T17:14:51.900Z,50.73
2023-05-06T17:17:21.448Z,50.82
2023-05-06T17:19:49.768Z,50.83
2023-05-06T17:22:17.536Z,50.96
2023-05-06T17:24:45.836Z,51.02
2023-05-06T17:27:13.765Z,51.08
2023-05-06T17:29:41.637Z,51.17
2023-05-06T17:32:09.714Z,51.14
2023-05-06T17:34:37.989Z,51.20
2023-05-06T17:37:06.306Z,51.07
2023-05-06T17:39:34.294Z,51.27
2023-05-06T17:42:03.556Z,51.52
2023-05-06T17:44:31.721Z,51.43
2023-05-06T17:46:59.631Z,51.66
2023-05-06T17:49:27.792Z,51.72
2023-05-06T17:51:56.155Z,51.72
2023-05-06T17:54:24.123Z,51.75
2023-05-06T17:56:52.964Z,51.67
2023-05-06T17:59:21.217Z,51.71
2023-05-06T18:01:49.188Z,51.88
2023-05-06T18:04:17.222Z,51.91
2023-05-06T18:06:46.468Z,51.70
2023-05-06T18:09:15.063Z,51.85
2023-05-06T18:11:43.890Z,51.74
2023-05-06T18:14:11.935Z,51.89
2023-05-06T18:16:39.877Z,51.91
2023-05-06T18:19:07.956Z,51.82
2023-05-06T18:21:36.157Z,52.12
2023-05-06T18:24:15.315Z,52.60
2023-05-06T18:26:46.033Z,52.76
2023-05-06T18:29:14.562Z,52.74
2023-05-06T18:31:42.758Z,52.67
2023-05-06T18:34:11.109Z,52.95
2023-05-06T18:36:39.033Z,52.83
2023-05-06T18:39:07.217Z,52.86
2023-05-06T18:41:35.368Z,52.83
2023-05-06T18:44:04.598Z,52.71
2023-05-06T18:46:32.512Z,52.88
2023-05-06T18:49:01.097Z,52.92
2023-05-06T18:51:29.053Z,52.89
2023-05-06T18:53:56.935Z,52.87
2023-05-06T18:56:24.835Z,53.01
2023-05-06T18:58:52.874Z,53.02
2023-05-06T19:01:21.223Z,52.95
2023-05-06T19:03:49.426Z,52.96
2023-05-06T19:06:17.406Z,53.03
2023-05-06T19:08:45.465Z,53.03
2023-05-06T19:11:18.182Z,53.07
2023-05-06T19:13:46.371Z,53.00
2023-05-06T19:16:16.086Z,52.96
2023-05-06T19:18:44.051Z,53.05
2023-05-06T19:21:12.518Z,53.05
2023-05-06T19:23:40.443Z,53.04
2023-05-06T19:26:11.258Z,52.95
2023-05-06T19:28:39.832Z,53.14
2023-05-06T19:31:10.860Z,52.96
2023-05-06T19:33:39.138Z,53.04
2023-05-06T19:36:07.261Z,53.24
2023-05-06T19:38:35.423Z,53.27
2023-05-06T19:41:03.377Z,53.38
2023-05-06T19:43:31.366Z,53.35
2023-05-06T19:45:59.368Z,53.66
2023-05-06T19:48:27.371Z,53.51
2023-05-06T19:50:55.379Z,53.44
2023-05-06T19:53:24.051Z,53.60
2023-05-06T19:55:53.588Z,53.72
2023-05-06T19:58:21.690Z,53.84
2023-05-06T20:00:49.747Z,53.97
2023-05-06T20:03:18.061Z,54.10
2023-05-06T20:05:46.094Z,54.18
2023-05-06T20:08:14.074Z,54.41
2023-05-06T20:10:41.970Z,54.52
2023-05-06T20:13:11.979Z,54.58
2023-05-06T20:15:40.038Z,54.75
2023-05-06T20:18:08.051Z,54.86
2023-05-06T20:20:36.287Z,55.06
2023-05-06T20:23:04.234Z,55.09
2023-05-06T20:25:32.343Z,55.30
2023-05-06T20:28:00.436Z,55.44
2023-05-06T20:30:28.550Z,55.47
2023-05-06T20:32:56.600Z,55.59
2023-05-06T20:35:24.755Z,55.76
2023-05-06T20:37:54.681Z,56.03
2023-05-06T20:40:22.908Z,56.28
2023-05-06T20:42:50.908Z,56.44
2023-05-06T20:45:18.921Z,56.55
2023-05-06T20:47:46.698Z,56.66
2023-05-06T20:50:17.365Z,56.88
2023-05-06T20:52:46.168Z,56.92
2023-05-06T20:55:15.427Z,57.10
2023-05-06T20:57:43.999Z,57.22
2023-05-06T21:00:12.563Z,57.24
2023-05-06T21:02:41.900Z,57.41
2023-05-06T21:05:11.176Z,57.51
2023-05-06T21:07:39.516Z,57.61
2023-05-06T21:10:07.561Z,57.59
2023-05-06T21:12:35.472Z,57.69
2023-05-06T21:15:03.825Z,57.82
2023-05-06T21:17:31.645Z,57.93
2023-05-06T21:19:59.614Z,57.99
2023-05-06T21:22:27.516Z,58.01
2023-05-06T21:24:56.117Z,58.09
2023-05-06T21:27:24.166Z,58.08
2023-05-06T21:29:51.965Z,58.27
2023-05-06T21:32:19.908Z,58.22
2023-05-06T21:34:47.912Z,58.31
2023-05-06T21:37:15.879Z,58.44
2023-05-06T21:39:43.785Z,58.50
2023-05-06T21:42:11.633Z,58.56
2023-05-06T21:44:39.797Z,58.58
2023-05-06T21:47:07.679Z,58.70
2023-05-06T21:49:36.769Z,58.67
2023-05-06T21:52:06.614Z,58.79
2023-05-06T21:54:34.572Z,58.84
2023-05-06T21:57:02.743Z,58.90
2023-05-06T21:59:30.568Z,59.03
2023-05-06T22:01:58.411Z,59.20
2023-05-06T22:04:26.649Z,59.51
2023-05-06T22:06:54.531Z,59.81
2023-05-06T22:09:23.432Z,59.55
2023-05-06T22:11:51.305Z,59.59
2023-05-06T22:14:21.907Z,59.75
2023-05-06T22:16:52.919Z,59.70
2023-05-06T22:19:21.343Z,59.84
2023-05-06T22:21:49.238Z,59.87
2023-05-06T22:24:17.225Z,59.75
2023-05-06T22:26:44.964Z,59.77
2023-05-06T22:29:12.856Z,59.69
2023-05-06T22:31:40.849Z,59.77
2023-05-06T22:34:08.905Z,59.77
2023-05-06T22:36:36.797Z,59.73
2023-05-06T22:39:04.589Z,59.73
2023-05-06T22:41:32.422Z,59.70
2023-05-06T22:44:00.499Z,59.81
2023-05-06T22:46:29.276Z,59.86
2023-05-06T22:48:58.074Z,59.88
2023-05-06T22:51:26.054Z,59.91
2023-05-06T22:53:53.923Z,60.00
2023-05-06T22:56:22.105Z,59.90
2023-05-06T22:58:49.976Z,59.93
2023-05-06T23:01:18.151Z,59.96
2023-05-06T23:03:46.100Z,60.03
2023-05-06T23:06:13.896Z,60.01
2023-05-06T23:08:41.778Z,60.11
2023-05-06T23:11:09.616Z,60.15
2023-05-06T23:13:37.525Z,60.14
2023-05-06T23:16:07.685Z,60.24
2023-05-06T23:18:36.064Z,60.14
2023-05-06T23:21:04.200Z,60.18
2023-05-06T23:23:32.699Z,60.33
2023-05-06T23:26:00.683Z,60.26
2023-05-06T23:28:30.021Z,60.22
2023-05-06T23:30:58.027Z,60.21
2023-05-06T23:33:25.916Z,60.29
2023-05-06T23:35:53.678Z,60.30
2023-05-06T23:38:21.765Z,60.26
2023-05-06T23:40:49.661Z,60.27
2023-05-06T23:43:17.612Z,60.22
2023-05-06T23:45:45.563Z,60.14
2023-05-06T23:48:13.465Z,60.10
2023-05-06T23:50:41.539Z,60.06
2023-05-06T23:53:09.398Z,60.01
2023-05-06T23:55:37.434Z,60.04
2023-05-06T23:58:05.361Z,60.01
